createdAt,value
2022-11-12T00:01:38.368Z,2.25
2022-11-12T00:04:23.829Z,2.67
2022-11-12T00:07:09.148Z,2.22
2022-11-12T00:09:54.732Z,1.83
2022-11-12T00:12:40.098Z,1.55
2022-11-12T00:15:26.674Z,1.80
2022-11-12T00:18:12.913Z,2.13
2022-11-12T00:20:58.581Z,2.25
2022-11-12T00:23:44.476Z,2.03
2022-11-12T00:26:30.042Z,1.90
2022-11-12T00:29:15.778Z,1.75
2022-11-12T00:32:01.192Z,1.40
2022-11-12T00:34:46.867Z,1.80
2022-11-12T00:37:32.809Z,1.50
2022-11-12T00:40:18.008Z,1.40
2022-11-12T00:43:03.321Z,1.48
2022-11-12T00:45:49.121Z,1.42
2022-11-12T00:48:34.863Z,1.08
2022-11-12T00:51:22.168Z,2.35
2022-11-12T00:54:07.953Z,1.60
2022-11-12T00:56:53.594Z,1.45
2022-11-12T00:59:39.046Z,1.70
2022-11-12T01:02:24.944Z,1.30
2022-11-12T01:05:10.467Z,1.42
2022-11-12T01:07:56.485Z,1.65
2022-11-12T01:10:41.829Z,1.50
2022-11-12T01:13:27.725Z,1.58
2022-11-12T01:16:16.684Z,1.38
2022-11-12T01:19:04.111Z,1.63
2022-11-12T01:21:50.081Z,1.20
2022-11-12T01:24:35.400Z,0.98
2022-11-12T01:27:20.938Z,1.10
2022-11-12T01:30:07.199Z,1.40
2022-11-12T01:32:52.502Z,1.40
2022-11-12T01:35:38.339Z,1.45
2022-11-12T01:38:24.382Z,1.35
2022-11-12T01:41:12.345Z,1.00
2022-11-12T01:44:21.149Z,1.20
2022-11-12T01:47:29.176Z,1.30
2022-11-12T01:50:23.402Z,1.17
2022-11-12T01:53:12.411Z,1.30
2022-11-12T01:55:59.921Z,1.38
2022-11-12T01:58:49.190Z,1.30
2022-11-12T02:01:37.840Z,1.20
2022-11-12T02:04:23.839Z,0.90
2022-11-12T02:07:10.833Z,0.75
2022-11-12T02:09:57.145Z,0.80
2022-11-12T02:13:02.200Z,1.00
2022-11-12T02:15:47.850Z,0.88
2022-11-12T02:18:33.622Z,1.30
2022-11-12T02:21:23.660Z,0.80
2022-11-12T02:24:12.149Z,1.52
2022-11-12T02:26:59.914Z,0.93
2022-11-12T02:29:48.076Z,1.02
2022-11-12T02:32:33.668Z,1.02
2022-11-12T02:35:19.416Z,1.23
2022-11-12T02:38:05.939Z,1.70
2022-11-12T02:40:52.161Z,1.20
2022-11-12T02:43:37.794Z,1.40
2022-11-12T02:46:23.265Z,1.30
2022-11-12T02:49:08.500Z,1.40
2022-11-12T02:51:54.219Z,1.50
2022-11-12T02:54:39.555Z,1.35
2022-11-12T02:57:25.182Z,2.15
2022-11-12T03:00:13.390Z,1.95
2022-11-12T03:02:59.389Z,1.45
2022-11-12T03:05:53.916Z,1.20
2022-11-12T03:08:39.457Z,2.17
2022-11-12T03:11:25.275Z,2.28
2022-11-12T03:14:10.971Z,1.25
2022-11-12T03:16:56.403Z,0.98
2022-11-12T03:19:42.075Z,0.90
2022-11-12T03:22:27.549Z,0.90
2022-11-12T03:25:13.301Z,0.90
2022-11-12T03:28:00.110Z,0.90
2022-11-12T03:30:45.768Z,1.05
2022-11-12T03:33:31.356Z,1.10
2022-11-12T03:36:17.162Z,1.58
2022-11-12T03:39:02.984Z,0.80
2022-11-12T03:41:48.054Z,0.90
2022-11-12T03:44:33.764Z,0.80
2022-11-12T03:47:19.070Z,0.82
2022-11-12T03:50:04.962Z,0.63
2022-11-12T03:52:54.761Z,0.65
2022-11-12T03:55:40.685Z,0.80
2022-11-12T03:58:26.340Z,0.82
2022-11-12T04:01:12.440Z,0.77
2022-11-12T04:03:57.981Z,0.80
2022-11-12T04:07:01.931Z,0.80
2022-11-12T04:09:47.612Z,0.73
2022-11-12T04:12:51.737Z,0.77
2022-11-12T04:15:37.264Z,0.80
2022-11-12T04:18:41.366Z,2.45
2022-11-12T04:21:55.173Z,1.27
2022-11-12T04:25:01.469Z,1.10
2022-11-12T04:27:47.031Z,1.92
2022-11-12T04:30:32.898Z,1.90
2022-11-12T04:33:18.204Z,0.70
2022-11-12T04:36:04.231Z,0.80
2022-11-12T04:38:49.811Z,1.08
2022-11-12T04:41:53.758Z,1.30
2022-11-12T04:44:57.965Z,1.20
2022-11-12T04:47:44.143Z,1.33
2022-11-12T04:50:29.814Z,1.67
2022-11-12T04:53:15.610Z,1.40
2022-11-12T04:56:01.075Z,1.63
2022-11-12T04:58:47.012Z,3.60
2022-11-12T05:01:32.569Z,5.38
2022-11-12T05:04:18.427Z,3.30
2022-11-12T05:07:04.073Z,1.90
2022-11-12T05:09:49.829Z,1.60
2022-11-12T05:12:35.522Z,1.40
2022-11-12T05:15:21.640Z,1.70
2022-11-12T05:18:06.879Z,1.08
2022-11-12T05:20:53.665Z,1.05
2022-11-12T05:23:38.991Z,1.73
2022-11-12T05:26:24.351Z,0.90
2022-11-12T05:29:10.219Z,1.00
2022-11-12T05:31:55.878Z,1.00
2022-11-12T05:34:41.774Z,1.10
2022-11-12T05:37:27.062Z,1.10
2022-11-12T05:40:13.492Z,1.75
2022-11-12T05:42:58.696Z,1.77
2022-11-12T05:45:44.666Z,1.00
2022-11-12T05:48:31.029Z,1.42
2022-11-12T05:51:17.921Z,1.70
2022-11-12T05:54:04.268Z,1.55
2022-11-12T05:56:53.399Z,1.65
2022-11-12T05:59:38.996Z,1.65
2022-11-12T06:02:24.384Z,1.55
2022-11-12T06:05:10.387Z,2.05
2022-11-12T06:07:55.974Z,2.10
2022-11-12T06:10:41.521Z,2.17
2022-11-12T06:13:27.008Z,2.20
2022-11-12T06:16:12.642Z,2.08
2022-11-12T06:18:58.490Z,2.13
2022-11-12T06:21:44.556Z,1.85
2022-11-12T06:24:35.075Z,4.50
2022-11-12T06:27:21.082Z,3.53
2022-11-12T06:30:08.031Z,2.22
2022-11-12T06:32:53.601Z,2.67
2022-11-12T06:35:42.791Z,3.22
2022-11-12T06:38:30.432Z,3.03
2022-11-12T06:41:15.986Z,2.40
2022-11-12T06:44:01.236Z,2.58
2022-11-12T06:46:46.789Z,2.70
2022-11-12T06:49:32.605Z,2.67
2022-11-12T06:52:19.003Z,2.60
2022-11-12T06:55:05.383Z,2.53
2022-11-12T06:57:54.107Z,2.10
2022-11-12T07:00:39.690Z,2.72
2022-11-12T07:03:25.138Z,2.80
2022-11-12T07:06:19.380Z,2.70
2022-11-12T07:09:05.318Z,2.72
2022-11-12T07:11:50.641Z,2.40
2022-11-12T07:14:36.234Z,3.03
2022-11-12T07:17:21.847Z,2.85
2022-11-12T07:20:08.715Z,3.00
2022-11-12T07:22:54.236Z,2.50
2022-11-12T07:25:39.818Z,2.67
2022-11-12T07:28:26.459Z,2.35
2022-11-12T07:31:14.298Z,2.97
2022-11-12T07:34:00.632Z,3.00
2022-11-12T07:36:45.795Z,3.33
2022-11-12T07:39:31.287Z,3.75
2022-11-12T07:42:16.711Z,3.80
2022-11-12T07:45:02.178Z,3.55
2022-11-12T07:47:47.679Z,4.18
2022-11-12T07:50:33.372Z,4.63
2022-11-12T07:53:18.871Z,3.90
2022-11-12T07:56:04.923Z,3.58
2022-11-12T07:58:51.256Z,4.65
2022-11-12T08:01:41.622Z,4.57
2022-11-12T08:04:27.393Z,4.22
2022-11-12T08:07:13.008Z,4.55
2022-11-12T08:09:59.003Z,4.85
2022-11-12T08:12:44.412Z,7.47
2022-11-12T08:15:31.011Z,5.05
2022-11-12T08:18:16.330Z,5.32
2022-11-12T08:21:03.320Z,5.68
2022-11-12T08:23:48.755Z,8.13
2022-11-12T08:26:34.537Z,8.55
2022-11-12T08:29:20.303Z,9.38
2022-11-12T08:32:06.009Z,9.02
2022-11-12T08:34:51.560Z,9.10
2022-11-12T08:37:37.046Z,8.07
2022-11-12T08:40:23.449Z,9.65
2022-11-12T08:43:10.822Z,10.20
2022-11-12T08:46:01.684Z,10.25
2022-11-12T08:48:46.826Z,8.65
2022-11-12T08:51:32.307Z,9.30
2022-11-12T08:54:17.934Z,7.80
2022-11-12T08:57:03.518Z,8.30
2022-11-12T08:59:49.239Z,8.82
2022-11-12T09:02:34.442Z,9.07
2022-11-12T09:05:20.388Z,8.57
2022-11-12T09:08:09.223Z,9.70
2022-11-12T09:10:54.885Z,11.63
2022-11-12T09:13:40.624Z,10.52
2022-11-12T09:16:26.152Z,10.25
2022-11-12T09:19:11.881Z,6.80
2022-11-12T09:44:36.920Z,7.45
2022-11-12T09:47:34.384Z,7.40
2022-11-12T09:50:33.882Z,7.53
2022-11-12T09:53:43.007Z,7.53
2022-11-12T09:56:30.249Z,7.20
2022-11-12T09:59:16.375Z,7.15
2022-11-12T10:02:23.623Z,8.25
2022-11-12T10:05:14.855Z,8.45
2022-11-12T10:08:08.967Z,8.82
2022-11-12T10:11:21.143Z,8.98
2022-11-12T10:14:22.522Z,8.25
2022-11-12T10:17:12.147Z,8.68
2022-11-12T10:20:11.678Z,8.07
2022-11-12T10:23:06.082Z,7.50
2022-11-12T10:25:57.110Z,8.43
2022-11-12T10:29:00.560Z,8.30
2022-11-12T10:31:45.832Z,8.60
2022-11-12T10:34:31.366Z,9.02
2022-11-12T10:37:33.956Z,8.32
2022-11-12T10:40:25.228Z,10.75
2022-11-12T10:43:16.637Z,11.15
2022-11-12T10:46:23.780Z,11.40
2022-11-12T10:49:15.161Z,12.18
2022-11-12T10:52:00.694Z,14.05
2022-11-12T11:06:26.773Z,27.08
2022-11-12T11:09:12.311Z,27.70
2022-11-12T11:23:33.600Z,25.55
2022-11-12T11:26:46.687Z,24.67
2022-11-12T11:29:38.426Z,23.80
2022-11-12T11:32:44.136Z,23.75
2022-11-12T11:35:54.534Z,23.70
2022-11-12T11:38:49.580Z,23.08
2022-11-12T11:42:10.642Z,22.25
2022-11-12T11:45:02.193Z,22.38
2022-11-12T11:48:13.672Z,21.38
2022-11-12T11:51:46.043Z,21.42
2022-11-12T11:54:31.375Z,20.20
2022-11-12T11:57:28.925Z,21.08
2022-11-12T12:00:20.903Z,19.98
2022-11-12T12:03:22.366Z,19.75
2022-11-12T12:06:23.023Z,21.38
2022-11-12T12:09:32.346Z,21.63
2022-11-12T12:12:29.861Z,20.05
2022-11-12T12:15:33.384Z,19.95
2022-11-12T12:18:28.758Z,19.90
2022-11-12T12:21:19.722Z,20.35
2022-11-12T12:24:20.575Z,19.70
2022-11-12T12:27:15.455Z,19.13
2022-11-12T12:30:05.613Z,19.60
2022-11-12T12:33:00.329Z,19.20
2022-11-12T12:36:21.824Z,18.80
2022-11-12T12:39:43.592Z,18.25
2022-11-12T12:42:42.923Z,16.38
2022-11-12T12:45:38.300Z,17.05
2022-11-12T12:48:33.117Z,18.05
2022-11-12T12:51:19.492Z,17.17
2022-11-12T12:54:05.282Z,17.25
2022-11-12T12:56:51.251Z,17.27
2022-11-12T12:59:36.673Z,18.10
2022-11-12T13:02:24.778Z,17.67
2022-11-12T13:05:35.216Z,18.55
2022-11-12T13:08:25.309Z,19.48
2022-11-12T13:11:51.200Z,18.65
2022-11-12T13:17:45.686Z,19.75
2022-11-12T13:20:34.379Z,21.23
2022-11-12T13:24:08.249Z,20.90
2022-11-12T13:26:59.346Z,24.35
2022-11-12T13:29:46.998Z,28.50
2022-11-12T13:32:47.995Z,27.45
2022-11-12T13:35:39.848Z,26.45
2022-11-12T13:38:26.459Z,26.88
2022-11-12T13:41:41.656Z,26.42
2022-11-12T13:44:28.792Z,25.80
2022-11-12T13:47:20.346Z,25.42
2022-11-12T13:50:09.802Z,24.17
2022-11-12T13:52:55.792Z,25.40
2022-11-12T13:55:49.414Z,25.25
2022-11-12T13:58:36.405Z,25.40
2022-11-12T14:01:24.320Z,24.70
2022-11-12T14:04:23.924Z,25.27
2022-11-12T14:07:17.918Z,26.33
2022-11-12T14:10:30.779Z,24.90
2022-11-12T14:13:24.149Z,25.02
2022-11-12T14:16:15.543Z,28.75
2022-11-12T14:19:21.308Z,27.98
2022-11-12T14:22:21.482Z,27.20
2022-11-12T14:25:20.865Z,26.38
2022-11-12T14:28:23.814Z,27.45
2022-11-12T14:31:23.391Z,28.90
2022-11-12T14:34:28.795Z,28.42
2022-11-12T14:37:39.897Z,30.05
2022-11-12T14:40:30.834Z,28.80
2022-11-12T14:43:41.032Z,30.02
2022-11-12T14:46:33.995Z,28.05
2022-11-12T14:49:39.352Z,27.98
2022-11-12T14:52:32.393Z,26.65
2022-11-12T14:55:24.936Z,30.58
2022-11-12T14:58:15.745Z,32.70
2022-11-12T15:01:55.683Z,32.67
2022-11-12T15:04:26.295Z,32.45
2022-11-12T15:07:25.790Z,32.10
2022-11-12T15:10:31.961Z,31.63
2022-11-12T15:13:23.856Z,31.83
2022-11-12T15:16:11.837Z,30.35
2022-11-12T15:19:17.754Z,30.02
2022-11-12T15:22:04.436Z,28.67
2022-11-12T15:24:49.803Z,28.92
2022-11-12T15:27:41.367Z,27.48
2022-11-12T15:30:32.253Z,29.90
2022-11-12T15:33:22.912Z,29.95
2022-11-12T15:36:21.896Z,29.65
2022-11-12T15:39:13.668Z,30.23
2022-11-12T15:42:02.450Z,32.03
2022-11-12T15:44:48.847Z,31.63
2022-11-12T15:47:34.201Z,32.40
2022-11-12T15:50:24.578Z,32.47
2022-11-12T15:53:09.898Z,32.20
2022-11-12T15:55:55.360Z,32.20
2022-11-12T15:58:40.850Z,35.28
2022-11-12T16:01:26.511Z,32.08
2022-11-12T16:04:12.838Z,33.63
2022-11-12T16:06:59.769Z,35.60
2022-11-12T16:09:45.501Z,32.58
2022-11-12T16:12:31.146Z,31.33
2022-11-12T16:15:22.434Z,31.67
2022-11-12T16:18:11.983Z,32.53
2022-11-12T16:20:57.946Z,34.05
2022-11-12T16:23:44.559Z,32.30
2022-11-12T16:26:32.250Z,31.35
2022-11-12T16:29:17.623Z,33.97
2022-11-12T16:32:04.534Z,35.50
2022-11-12T16:34:49.756Z,36.10
2022-11-12T16:37:38.285Z,35.88
2022-11-12T16:40:26.555Z,36.45
2022-11-12T16:43:12.107Z,39.08
2022-11-12T16:45:58.994Z,39.55
2022-11-12T16:48:44.503Z,35.75
2022-11-12T16:51:30.063Z,34.65
2022-11-12T16:54:15.592Z,35.42
2022-11-12T16:57:01.122Z,35.55
2022-11-12T16:59:46.653Z,37.97
2022-11-12T17:02:32.103Z,38.13
2022-11-12T17:05:20.492Z,36.45
2022-11-12T17:08:06.114Z,35.20
2022-11-12T17:10:51.685Z,37.58
2022-11-12T17:13:38.836Z,37.00
2022-11-12T17:16:24.622Z,33.53
2022-11-12T17:19:10.387Z,37.88
2022-11-12T17:21:55.692Z,48.90
2022-11-12T17:24:41.175Z,45.10
2022-11-12T17:27:27.466Z,44.88
2022-11-12T17:30:14.279Z,41.10
2022-11-12T17:33:00.304Z,34.22
2022-11-12T17:35:45.514Z,34.17
2022-11-12T17:38:31.194Z,38.33
2022-11-12T17:41:16.469Z,35.58
2022-11-12T17:44:02.387Z,36.65
2022-11-12T17:46:48.460Z,34.90
2022-11-12T17:49:34.089Z,34.40
2022-11-12T17:52:19.682Z,35.63
2022-11-12T17:55:05.534Z,34.47
2022-11-12T17:57:51.183Z,35.55
2022-11-12T18:00:38.281Z,27.60
2022-11-12T18:03:24.007Z,24.73
2022-11-12T18:06:31.032Z,21.75
2022-11-12T18:09:16.736Z,21.17
2022-11-12T18:12:02.006Z,18.58
2022-11-12T18:14:50.429Z,16.52
2022-11-12T18:17:36.426Z,15.35
2022-11-12T18:20:22.251Z,11.50
2022-11-12T18:23:08.280Z,10.70
2022-11-12T18:25:53.563Z,9.85
2022-11-12T18:28:39.023Z,9.65
2022-11-12T18:31:26.820Z,9.45
2022-11-12T18:34:14.993Z,9.65
2022-11-12T18:37:00.506Z,10.82
2022-11-12T18:39:46.063Z,10.43
2022-11-12T18:42:31.560Z,8.43
2022-11-12T18:45:17.352Z,7.90
2022-11-12T18:48:04.628Z,7.47
2022-11-12T18:50:50.052Z,6.80
2022-11-12T18:53:37.029Z,6.60
2022-11-12T18:56:22.590Z,6.95
2022-11-12T18:59:08.720Z,7.45
2022-11-12T19:01:54.291Z,8.57
2022-11-12T19:04:45.042Z,7.68
2022-11-12T19:07:30.635Z,9.32
2022-11-12T19:10:16.392Z,8.73
2022-11-12T19:13:04.045Z,8.63
2022-11-12T19:15:49.306Z,8.70
2022-11-12T19:18:35.049Z,7.72
2022-11-12T19:21:23.910Z,7.90
2022-11-12T19:24:09.348Z,9.38
2022-11-12T19:26:55.020Z,9.63
2022-11-12T19:29:40.582Z,8.73
2022-11-12T19:32:26.023Z,8.02
2022-11-12T19:35:11.381Z,8.57
2022-11-12T19:37:56.878Z,8.82
2022-11-12T19:40:42.970Z,8.05
2022-11-12T19:43:28.538Z,7.65
2022-11-12T19:46:14.552Z,8.90
2022-11-12T19:49:00.283Z,8.60
2022-11-12T19:51:45.589Z,7.82
2022-11-12T19:54:31.168Z,6.90
2022-11-12T19:57:16.778Z,7.00
2022-11-12T20:00:02.367Z,8.00
2022-11-12T20:02:47.630Z,7.97
2022-11-12T20:05:33.104Z,8.00
2022-11-12T20:08:19.197Z,8.55
2022-11-12T20:11:05.271Z,9.15
2022-11-12T20:13:53.591Z,7.43
2022-11-12T20:16:39.542Z,7.20
2022-11-12T20:19:25.835Z,7.80
2022-11-12T20:22:11.072Z,8.80
2022-11-12T20:24:56.357Z,7.85
2022-11-12T20:27:41.817Z,8.30
2022-11-12T20:30:27.515Z,8.90
2022-11-12T20:33:14.172Z,8.77
2022-11-12T20:36:08.476Z,7.68
2022-11-12T20:38:53.646Z,7.93
2022-11-12T20:41:39.111Z,7.30
2022-11-12T20:44:24.795Z,8.23
2022-11-12T20:47:10.638Z,9.48
2022-11-12T20:49:56.313Z,8.85
2022-11-12T20:52:41.679Z,8.73
2022-11-12T20:55:27.449Z,8.50
2022-11-12T20:58:13.726Z,7.95
2022-11-12T21:00:59.192Z,7.95
2022-11-12T21:03:45.378Z,8.40
2022-11-12T21:06:30.621Z,8.40
2022-11-12T21:09:16.398Z,9.27
2022-11-12T21:12:01.897Z,7.75
2022-11-12T21:14:50.388Z,6.22
2022-11-12T21:17:36.098Z,5.38
2022-11-12T21:20:21.386Z,5.00
2022-11-12T21:23:06.890Z,6.28
2022-11-12T21:25:52.428Z,4.43
2022-11-12T21:28:38.302Z,4.68
2022-11-12T21:31:29.609Z,4.22
2022-11-12T21:34:15.362Z,4.78
2022-11-12T21:37:01.295Z,4.28
2022-11-12T21:39:49.281Z,4.03
2022-11-12T21:42:34.604Z,4.22
2022-11-12T21:45:20.142Z,3.58
2022-11-12T21:48:05.574Z,3.05
2022-11-12T21:50:51.236Z,4.07
2022-11-12T21:53:36.526Z,4.10
2022-11-12T21:56:22.339Z,3.15
2022-11-12T21:59:07.625Z,3.25
2022-11-12T22:01:53.243Z,4.03
2022-11-12T22:04:38.831Z,3.28
2022-11-12T22:07:24.416Z,3.28
2022-11-12T22:10:09.984Z,3.17
2022-11-12T22:13:24.894Z,3.40
2022-11-12T22:16:15.163Z,3.22
2022-11-12T22:19:00.973Z,2.95
2022-11-12T22:21:46.047Z,2.95
2022-11-12T22:24:31.820Z,3.33
2022-11-12T22:27:17.333Z,3.22
2022-11-12T22:30:03.293Z,3.50
2022-11-12T22:32:48.876Z,3.08
2022-11-12T22:35:35.429Z,3.80
2022-11-12T22:38:20.725Z,3.03
2022-11-12T22:41:12.690Z,3.15
2022-11-12T22:44:01.263Z,3.50
2022-11-12T22:46:46.481Z,3.45
2022-11-12T22:49:32.079Z,3.28
2022-11-12T22:52:17.603Z,2.85
2022-11-12T22:55:04.283Z,3.45
2022-11-12T22:57:50.340Z,2.83
2022-11-12T23:00:35.816Z,2.97
2022-11-12T23:03:21.178Z,3.38
2022-11-12T23:06:06.870Z,3.28
2022-11-12T23:08:57.080Z,3.20
2022-11-12T23:11:42.883Z,2.92
2022-11-12T23:14:28.158Z,3.13
2022-11-12T23:17:13.753Z,4.03
2022-11-12T23:19:59.214Z,3.47
2022-11-12T23:22:44.756Z,3.72
2022-11-12T23:25:33.896Z,2.63
2022-11-12T23:28:19.728Z,2.75
2022-11-12T23:31:12.299Z,3.05
2022-11-12T23:34:00.194Z,2.80
2022-11-12T23:36:45.790Z,2.80
2022-11-12T23:39:31.155Z,2.88
2022-11-12T23:42:16.449Z,2.13
2022-11-12T23:45:02.010Z,2.22
2022-11-12T23:47:47.565Z,1.83
2022-11-12T23:50:33.011Z,2.30
2022-11-12T23:53:18.834Z,2.30
2022-11-12T23:56:05.474Z,2.70
2022-11-12T23:58:54.882Z,2.30
